Time;durP1;ratioP1;P1;durP2;ratioP2;P2;SDS_P1;SDS_P2;PMS_P1;PMS_P2;Temp;Humidity;BMP_temperature;BMP_pressure;BME280_temperature;BME280_humidity;BME280_pressure;Samples;Min_cycle;Max_cycle;Signal;HPM_P1;HPM_P2
2022/05/19 00:01:25;;;;;;;4.78;3.47;;;15.40;99.90;;;;;;4968647;28;20026;-60
2022/05/19 00:03:51;;;;;;;4.90;4.35;;;15.40;99.90;;;;;;4969229;28;20027;-62
2022/05/19 00:06:17;;;;;;;7.57;4.75;;;15.30;99.90;;;;;;4969587;28;20027;-60
2022/05/19 00:08:43;;;;;;;15.32;4.93;;;15.30;99.90;;;;;;4968952;28;20039;-60
2022/05/19 00:11:12;;;;;;;5.88;4.70;;;15.20;99.90;;;;;;4969775;28;20023;-60
2022/05/19 00:13:39;;;;;;;5.05;4.60;;;15.10;99.90;;;;;;4968114;28;20526;-60
2022/05/19 00:16:06;;;;;;;5.25;4.75;;;15.00;99.90;;;;;;4970529;28;20042;-60
2022/05/19 00:18:33;;;;;;;6.35;4.85;;;15.00;99.90;;;;;;4968985;28;20027;-61
2022/05/19 00:20:59;;;;;;;6.38;4.28;;;14.90;99.90;;;;;;4968909;28;20085;-59
2022/05/19 00:23:24;;;;;;;4.85;4.45;;;14.90;99.90;;;;;;4969064;28;20441;-60
2022/05/19 00:25:50;;;;;;;4.63;4.25;;;14.80;99.90;;;;;;4968065;28;20049;-62
2022/05/19 00:28:16;;;;;;;5.70;4.88;;;14.80;99.90;;;;;;4951869;28;20470;-61
2022/05/19 00:30:41;;;;;;;5.65;5.15;;;14.70;99.90;;;;;;4968954;28;20038;-61
2022/05/19 00:33:08;;;;;;;8.68;5.55;;;14.70;99.90;;;;;;4969405;28;20043;-62
2022/05/19 00:35:35;;;;;;;5.43;4.93;;;14.60;99.90;;;;;;4968654;28;20035;-60
2022/05/19 00:38:01;;;;;;;6.43;5.32;;;14.50;99.90;;;;;;4968764;28;20027;-60
2022/05/19 00:40:32;;;;;;;5.65;5.10;;;14.40;99.90;;;;;;4968171;28;20071;-62
2022/05/19 00:42:58;;;;;;;5.97;5.20;;;14.40;99.90;;;;;;4968222;28;20505;-60
2022/05/19 00:45:27;;;;;;;6.10;5.60;;;14.40;99.90;;;;;;4970347;28;20031;-60
2022/05/19 00:48:24;;;;;;;6.35;4.95;;;14.40;99.90;;;;;;4971583;28;20031;-61
2022/05/19 00:51:02;;;;;;;8.95;4.93;;;14.40;99.90;;;;;;4952416;28;20071;-60
2022/05/19 00:53:31;;;;;;;5.20;3.97;;;14.40;99.90;;;;;;4971457;28;20027;-60
2022/05/19 00:56:01;;;;;;;5.32;4.90;;;14.40;99.90;;;;;;4972034;28;20042;-60
2022/05/19 00:58:32;;;;;;;6.60;4.45;;;14.40;99.90;;;;;;4954572;28;20036;-60
2022/05/19 01:00:57;;;;;;;13.52;6.45;;;14.40;99.90;;;;;;4972607;28;20538;-61
2022/05/19 01:03:26;;;;;;;8.00;6.03;;;14.30;99.90;;;;;;4972118;28;20027;-60
2022/05/19 01:05:56;;;;;;;8.88;6.20;;;14.30;99.90;;;;;;4972286;28;20031;-60
2022/05/19 01:08:30;;;;;;;7.30;6.68;;;14.20;99.90;;;;;;4970998;28;20030;-61
2022/05/19 01:10:57;;;;;;;6.32;5.82;;;14.10;99.90;;;;;;4971178;28;20027;-59
2022/05/19 01:13:25;;;;;;;6.47;5.88;;;14.00;99.90;;;;;;4972468;28;20019;-60
2022/05/19 01:15:52;;;;;;;7.53;6.70;;;14.00;99.90;;;;;;4971956;28;20042;-60
2022/05/19 01:18:19;;;;;;;7.82;7.13;;;13.90;99.90;;;;;;4971958;28;20015;-62
2022/05/19 01:20:46;;;;;;;8.40;7.53;;;13.80;99.90;;;;;;4972119;28;20042;-59
2022/05/19 01:23:31;;;;;;;8.45;7.75;;;13.70;99.90;;;;;;4971846;28;20023;-63
2022/05/19 01:26:24;;;;;;;8.35;7.65;;;13.70;99.90;;;;;;4970953;28;20027;-63
2022/05/19 01:28:50;;;;;;;7.78;7.13;;;13.60;99.90;;;;;;4969892;28;20110;-62
2022/05/19 01:31:50;;;;;;;12.38;6.88;;;13.60;99.90;;;;;;4972417;28;20102;-61
2022/05/19 01:34:17;;;;;;;8.90;8.10;;;13.60;99.90;;;;;;4971583;28;20041;-62
2022/05/19 01:36:43;;;;;;;6.97;6.38;;;13.60;99.90;;;;;;4970338;28;20138;-62
2022/05/19 01:39:18;;;;;;;6.65;6.15;;;13.50;99.90;;;;;;4972079;28;20565;-62
2022/05/19 01:41:59;;;;;;;6.43;5.88;;;13.50;99.90;;;;;;4971424;28;20043;-62
2022/05/19 01:44:43;;;;;;;8.15;7.38;;;13.60;99.90;;;;;;4971899;28;20038;-61
2022/05/19 01:47:18;;;;;;;7.90;7.20;;;13.50;99.90;;;;;;4970660;28;20055;-62
2022/05/19 01:49:47;;;;;;;8.82;8.02;;;13.50;99.90;;;;;;4970885;28;20043;-62
2022/05/19 01:52:24;;;;;;;6.78;6.18;;;13.50;99.90;;;;;;4971689;28;20018;-62
2022/05/19 01:55:06;;;;;;;7.28;6.68;;;13.50;99.90;;;;;;4972181;28;20039;-62
2022/05/19 01:57:48;;;;;;;8.27;6.40;;;13.40;99.90;;;;;;4970667;28;20031;-62
2022/05/19 02:00:25;;;;;;;6.93;6.38;;;13.40;99.90;;;;;;4970782;28;20031;-62
2022/05/19 02:03:05;;;;;;;7.60;6.55;;;13.40;99.90;;;;;;4953541;28;20023;-63
2022/05/19 02:05:46;;;;;;;7.53;6.23;;;13.30;99.90;;;;;;4971261;28;20553;-61
2022/05/19 02:08:21;;;;;;;6.45;5.95;;;13.30;99.90;;;;;;4970618;28;20023;-61
2022/05/19 02:10:50;;;;;;;8.07;6.82;;;13.20;99.90;;;;;;4969821;28;20030;-62
2022/05/19 02:13:16;;;;;;;7.65;6.35;;;13.20;99.90;;;;;;4971168;28;20422;-61
2022/05/19 02:15:47;;;;;;;6.78;6.18;;;13.20;99.90;;;;;;4971632;28;20537;-62
2022/05/19 02:18:16;;;;;;;7.15;6.45;;;13.10;99.90;;;;;;4970650;28;20398;-64
2022/05/19 02:20:43;;;;;;;7.55;6.85;;;13.10;99.90;;;;;;4970808;28;20039;-62
2022/05/19 02:23:11;;;;;;;6.70;6.20;;;13.10;99.90;;;;;;4970093;28;20027;-62
2022/05/19 02:25:48;;;;;;;6.97;6.32;;;13.10;99.90;;;;;;4968071;28;20057;-63
2022/05/19 02:28:26;;;;;;;6.40;5.80;;;13.10;99.90;;;;;;4970129;28;20022;-62
2022/05/19 02:30:52;;;;;;;6.78;6.18;;;13.10;99.90;;;;;;4970939;28;20042;-62
2022/05/19 02:33:18;;;;;;;7.05;6.32;;;13.00;99.90;;;;;;4970591;28;20097;-62
2022/05/19 02:35:44;;;;;;;6.80;6.15;;;13.00;99.90;;;;;;4970670;28;20449;-62
2022/05/19 02:38:11;;;;;;;6.90;6.30;;;12.90;99.90;;;;;;4970355;28;20065;-62
2022/05/19 02:40:38;;;;;;;7.65;6.97;;;12.80;99.90;;;;;;4969920;28;20046;-61
2022/05/19 02:43:05;;;;;;;7.18;6.40;;;12.70;99.90;;;;;;4971246;28;20035;-64
2022/05/19 02:45:31;;;;;;;7.00;6.30;;;12.60;99.90;;;;;;4967979;28;20510;-61
2022/05/19 02:47:57;;;;;;;8.10;7.47;;;12.60;99.90;;;;;;4969609;28;20046;-63
2022/05/19 02:50:23;;;;;;;7.85;7.13;;;12.50;99.90;;;;;;4969853;28;20394;-62
2022/05/19 02:52:49;;;;;;;7.55;6.90;;;12.40;99.90;;;;;;4970855;28;20073;-61
2022/05/19 02:55:15;;;;;;;8.20;7.50;;;12.40;99.90;;;;;;4970576;28;20506;-61
2022/05/19 02:57:42;;;;;;;7.78;7.18;;;12.30;99.90;;;;;;4970581;28;20056;-62
2022/05/19 03:00:12;;;;;;;8.35;7.65;;;12.30;99.90;;;;;;4970071;28;20109;-61
2022/05/19 03:02:39;;;;;;;8.60;7.80;;;12.20;99.90;;;;;;4952932;28;20490;-62
2022/05/19 03:05:05;;;;;;;8.73;7.82;;;12.10;99.90;;;;;;4970512;28;20038;-61
2022/05/19 03:07:30;;;;;;;8.43;7.70;;;12.10;99.90;;;;;;4969275;28;20301;-63
2022/05/19 03:09:56;;;;;;;7.53;6.93;;;12.00;99.90;;;;;;4953550;28;20093;-62
2022/05/19 03:12:22;;;;;;;8.07;6.82;;;11.90;99.90;;;;;;4970153;28;20042;-61
2022/05/19 03:14:47;;;;;;;7.05;6.55;;;11.90;99.90;;;;;;4970720;28;20027;-62
2022/05/19 03:17:13;;;;;;;7.47;6.75;;;11.80;99.90;;;;;;4969311;28;20561;-61
2022/05/19 03:19:39;;;;;;;8.85;8.05;;;11.80;99.90;;;;;;4969678;28;20101;-61
2022/05/19 03:22:06;;;;;;;9.02;8.23;;;11.70;99.90;;;;;;4969366;28;20026;-61
2022/05/19 03:24:33;;;;;;;8.38;7.63;;;11.70;99.90;;;;;;4969671;28;20031;-61
2022/05/19 03:26:59;;;;;;;8.13;7.53;;;11.70;99.90;;;;;;4970414;28;20109;-61
2022/05/19 03:29:25;;;;;;;8.00;7.40;;;11.70;99.90;;;;;;4951712;28;20521;-61
2022/05/19 03:31:51;;;;;;;9.07;8.38;;;11.70;99.90;;;;;;4969683;28;20030;-62
2022/05/19 03:34:17;;;;;;;9.63;8.82;;;11.70;99.90;;;;;;4969758;28;20023;-62
2022/05/19 03:36:45;;;;;;;11.18;10.25;;;11.70;99.90;;;;;;4969821;28;20490;-63
2022/05/19 03:39:10;;;;;;;10.00;9.20;;;11.80;99.90;;;;;;4968124;28;20170;-63
2022/05/19 03:41:36;;;;;;;11.60;9.50;;;11.80;99.90;;;;;;4969618;28;20570;-61
2022/05/19 03:44:02;;;;;;;11.00;9.98;;;11.80;99.90;;;;;;4969697;28;20121;-61
2022/05/19 03:46:28;;;;;;;13.50;9.88;;;11.80;99.90;;;;;;4969708;28;20023;-61
2022/05/19 03:48:53;;;;;;;10.60;9.70;;;11.90;99.90;;;;;;4968460;28;20121;-62
2022/05/19 03:51:25;;;;;;;11.25;10.07;;;12.00;99.90;;;;;;4969044;28;20525;-61
2022/05/19 03:53:51;;;;;;;;;;;12.00;99.90;;;;;;4968152;28;20028;-62
2022/05/19 03:56:18;;;;;;;8.80;7.90;;;12.10;99.90;;;;;;4968773;28;19914;-61
2022/05/19 03:58:43;;;;;;;8.10;7.30;;;12.10;99.90;;;;;;4967878;28;20031;-61
2022/05/19 04:01:09;;;;;;;9.00;8.15;;;12.10;99.90;;;;;;4968985;28;20030;-62
2022/05/19 04:03:35;;;;;;;8.73;7.80;;;12.00;99.90;;;;;;4968367;28;20038;-62
2022/05/19 04:06:01;;;;;;;9.52;7.65;;;11.90;99.90;;;;;;4968439;28;20034;-61
2022/05/19 04:08:28;;;;;;;8.20;7.13;;;11.90;99.90;;;;;;4969444;28;20122;-62
2022/05/19 04:10:54;;;;;;;8.35;7.38;;;11.80;99.90;;;;;;4968787;28;20158;-62
2022/05/19 04:13:20;;;;;;;12.10;8.68;;;11.80;99.90;;;;;;4970389;28;20022;-63
2022/05/19 04:15:45;;;;;;;8.90;8.13;;;11.80;99.90;;;;;;4969296;28;20469;-61
2022/05/19 04:18:14;;;;;;;8.57;7.97;;;11.80;99.90;;;;;;4967153;28;20076;-62
2022/05/19 04:20:40;;;;;;;9.98;8.30;;;11.70;99.90;;;;;;4971289;28;20067;-62
2022/05/19 04:23:07;;;;;;;8.15;7.43;;;11.80;99.90;;;;;;4972298;28;20517;-62
2022/05/19 04:25:33;;;;;;;8.23;7.53;;;11.80;99.90;;;;;;4972376;28;20498;-62
2022/05/19 04:27:59;;;;;;;8.00;7.40;;;11.80;99.90;;;;;;4955141;28;20113;-62
2022/05/19 04:30:25;;;;;;;9.15;8.43;;;11.80;99.90;;;;;;4972944;28;20097;-62
2022/05/19 04:32:51;;;;;;;8.80;8.00;;;11.90;99.90;;;;;;4972023;28;20027;-62
2022/05/19 04:35:16;;;;;;;8.02;7.43;;;11.90;99.90;;;;;;4973362;28;20033;-62
2022/05/19 04:37:43;;;;;;;8.77;7.97;;;12.00;99.90;;;;;;4971480;28;20059;-61
2022/05/19 04:40:10;;;;;;;8.38;7.32;;;12.00;99.90;;;;;;4973202;28;20031;-62
2022/05/19 04:42:36;;;;;;;7.55;6.57;;;12.20;99.90;;;;;;4973138;28;20121;-62
2022/05/19 04:45:02;;;;;;;9.07;8.20;;;12.20;99.90;;;;;;4972796;28;20027;-61
2022/05/19 04:47:28;;;;;;;8.82;7.22;;;12.30;99.90;;;;;;4972697;28;20038;-62
2022/05/19 04:49:54;;;;;;;8.00;7.32;;;12.30;99.90;;;;;;4969732;28;20043;-63
2022/05/19 04:52:21;;;;;;;9.48;8.13;;;12.40;99.90;;;;;;4972467;28;20489;-62
2022/05/19 04:54:47;;;;;;;7.60;6.90;;;12.50;99.90;;;;;;4972322;28;20074;-62
2022/05/19 04:57:13;;;;;;;8.63;7.95;;;12.70;99.90;;;;;;4972956;28;20030;-60
2022/05/19 04:59:40;;;;;;;7.50;6.65;;;12.90;99.90;;;;;;4971258;28;20098;-60
2022/05/19 05:02:06;;;;;;;7.88;7.18;;;13.40;99.90;;;;;;4971717;28;20065;-60
2022/05/19 05:04:32;;;;;;;5.82;5.32;;;14.30;99.90;;;;;;4972037;28;20027;-61
2022/05/19 05:06:58;;;;;;;6.20;5.60;;;15.30;99.90;;;;;;4973313;28;20026;-61
2022/05/19 05:09:24;;;;;;;5.50;5.10;;;16.40;99.90;;;;;;4971881;28;20031;-59
2022/05/19 05:11:50;;;;;;;8.55;4.68;;;17.60;99.90;;;;;;4971413;28;20046;-59
2022/05/19 05:14:17;;;;;;;7.50;4.78;;;18.90;99.90;;;;;;4972530;28;20506;-59
2022/05/19 05:16:48;;;;;;;4.40;4.00;;;20.30;94.10;;;;;;4971126;28;20042;-59
2022/05/19 05:19:14;;;;;;;8.07;3.97;;;21.80;87.60;;;;;;4972631;28;20059;-60
2022/05/19 05:21:40;;;;;;;4.50;4.10;;;23.00;79.50;;;;;;4971738;28;20282;-60
2022/05/19 05:24:06;;;;;;;4.38;3.40;;;24.00;71.70;;;;;;4971978;28;20027;-60
2022/05/19 05:26:31;;;;;;;6.32;3.55;;;24.50;67.00;;;;;;4971654;28;20031;-60
2022/05/19 05:28:57;;;;;;;6.60;3.70;;;25.00;64.60;;;;;;4971199;28;20030;-60
2022/05/19 05:31:22;;;;;;;4.30;3.90;;;25.10;62.20;;;;;;4970017;28;20453;-60
2022/05/19 05:33:48;;;;;;;6.30;3.90;;;25.10;62.40;;;;;;4972674;28;20034;-60
2022/05/19 05:36:14;;;;;;;6.40;3.38;;;25.00;63.70;;;;;;4971848;28;20054;-60
2022/05/19 05:38:40;;;;;;;4.45;3.30;;;25.30;62.30;;;;;;4971139;28;20077;-60
2022/05/19 05:41:06;;;;;;;3.55;3.25;;;25.50;60.30;;;;;;4971895;28;20038;-60
2022/05/19 05:43:34;;;;;;;5.95;3.42;;;25.70;59.90;;;;;;4971207;28;20026;-60
2022/05/19 05:46:12;;;;;;;4.18;2.88;;;26.00;58.90;;;;;;4972412;28;20023;-60
2022/05/19 05:48:38;;;;;;;7.75;3.50;;;26.40;57.70;;;;;;4967314;28;20031;-60
2022/05/19 05:51:09;;;;;;;5.10;3.33;;;26.40;56.90;;;;;;4971934;28;20495;-60
2022/05/19 05:53:35;;;;;;;;;;;25.80;56.50;;;;;;4970701;28;20498;-60
2022/05/19 05:56:01;;;;;;;4.13;2.90;;;25.60;58.10;;;;;;4971775;28;19910;-60
2022/05/19 05:58:27;;;;;;;3.40;2.88;;;25.50;58.60;;;;;;4970363;28;20426;-60
2022/05/19 06:00:53;;;;;;;4.50;3.30;;;25.70;58.50;;;;;;4972185;28;20085;-60
2022/05/19 06:03:20;;;;;;;5.72;3.38;;;25.70;58.50;;;;;;4971741;28;20039;-60
2022/05/19 06:05:45;;;;;;;4.60;3.13;;;25.90;57.40;;;;;;4971438;28;20031;-60
2022/05/19 06:08:11;;;;;;;3.70;3.40;;;26.00;58.60;;;;;;4971475;28;20027;-60
2022/05/19 06:10:37;;;;;;;3.88;2.97;;;26.60;57.50;;;;;;4970290;28;20487;-60
2022/05/19 06:13:03;;;;;;;4.65;3.65;;;27.00;56.30;;;;;;4971807;28;20018;-60
2022/05/19 06:15:29;;;;;;;3.22;2.95;;;26.50;55.60;;;;;;4970604;28;20035;-60
2022/05/19 06:17:54;;;;;;;4.78;3.35;;;26.50;55.40;;;;;;4970815;28;20077;-60
2022/05/19 06:20:20;;;;;;;3.75;3.30;;;27.20;56.40;;;;;;4969297;28;20027;-60
2022/05/19 06:22:47;;;;;;;4.97;3.95;;;27.20;55.30;;;;;;4969226;28;20033;-60
2022/05/19 06:25:18;;;;;;;5.07;3.20;;;28.10;55.90;;;;;;4970909;28;20022;-60
2022/05/19 06:27:44;;;;;;;3.25;2.95;;;28.70;53.90;;;;;;4962348;28;20038;-61
2022/05/19 06:30:12;;;;;;;4.57;2.92;;;29.70;52.40;;;;;;4970646;28;20082;-61
2022/05/19 06:32:39;;;;;;;3.67;2.60;;;30.60;49.40;;;;;;4970394;28;20034;-60
2022/05/19 06:35:06;;;;;;;2.70;2.50;;;30.70;48.30;;;;;;4971233;28;20034;-61
2022/05/19 06:37:32;;;;;;;3.85;2.47;;;30.80;47.90;;;;;;4967736;28;20027;-61
2022/05/19 06:39:58;;;;;;;3.00;2.70;;;30.90;47.40;;;;;;4969911;28;20098;-61
2022/05/19 06:42:23;;;;;;;4.70;2.65;;;31.20;47.00;;;;;;4969617;28;20067;-61
2022/05/19 06:44:50;;;;;;;3.30;2.60;;;30.90;47.60;;;;;;4970975;28;20035;-61
2022/05/19 06:47:16;;;;;;;5.85;2.10;;;30.90;47.10;;;;;;4970830;28;20057;-61
2022/05/19 06:49:47;;;;;;;3.33;1.98;;;30.80;44.60;;;;;;4951582;28;20054;-61
2022/05/19 06:52:18;;;;;;;1.77;1.67;;;29.70;45.80;;;;;;4970904;28;20019;-61
2022/05/19 06:54:45;;;;;;;2.17;1.90;;;29.20;47.10;;;;;;4970229;28;20197;-60
2022/05/19 06:57:11;;;;;;;2.67;2.15;;;28.80;47.90;;;;;;4970412;28;20478;-60
2022/05/19 06:59:37;;;;;;;5.05;2.38;;;28.00;49.40;;;;;;4968928;28;20039;-61
2022/05/19 07:02:04;;;;;;;2.38;2.28;;;27.90;50.50;;;;;;4970407;28;20058;-60
2022/05/19 07:04:29;;;;;;;4.10;2.38;;;28.20;50.60;;;;;;4969717;28;20027;-61
2022/05/19 07:06:55;;;;;;;3.95;2.30;;;28.00;51.90;;;;;;4970692;28;20386;-60
2022/05/19 07:09:21;;;;;;;3.35;2.05;;;28.10;51.30;;;;;;4968782;28;20706;-60
2022/05/19 07:11:46;;;;;;;6.65;2.38;;;27.60;50.20;;;;;;4969823;28;20059;-61
2022/05/19 07:14:12;;;;;;;3.42;2.10;;;27.50;50.70;;;;;;4968965;28;20023;-60
2022/05/19 07:16:38;;;;;;;4.05;2.40;;;27.30;51.10;;;;;;4969472;28;20031;-60
2022/05/19 07:21:48;;;;;;;3.53;2.00;;;27.90;49.90;;;;;;4968750;28;20046;-60
2022/05/19 07:24:20;;;;;;;5.68;2.00;;;27.80;49.60;;;;;;4968745;28;20394;-60
2022/05/19 07:26:48;;;;;;;3.90;2.05;;;27.70;51.40;;;;;;4969316;28;20027;-60
2022/05/19 07:29:14;;;;;;;3.53;2.38;;;27.80;50.10;;;;;;4970051;28;20147;-60
2022/05/19 07:31:41;;;;;;;4.55;2.10;;;27.40;50.30;;;;;;4969913;28;20034;-60
2022/05/19 07:34:08;;;;;;;3.63;2.08;;;27.30;52.70;;;;;;4969856;28;20394;-60
2022/05/19 07:36:34;;;;;;;5.80;2.00;;;27.10;51.70;;;;;;4970160;28;20038;-60
2022/05/19 07:39:00;;;;;;;2.60;2.15;;;27.90;50.30;;;;;;4969174;28;20583;-60
2022/05/19 07:41:27;;;;;;;3.72;1.83;;;28.60;49.20;;;;;;4969722;28;20030;-60
2022/05/19 07:43:53;;;;;;;3.60;1.77;;;28.40;50.40;;;;;;4969561;28;20027;-60
2022/05/19 07:46:19;;;;;;;2.33;1.60;;;29.10;48.70;;;;;;4969600;28;20027;-62
2022/05/19 07:48:45;;;;;;;2.85;1.80;;;29.30;49.20;;;;;;4969258;28;20761;-61
2022/05/19 07:51:12;;;;;;;1.60;1.50;;;30.00;45.50;;;;;;4969801;28;20037;-61
2022/05/19 07:53:38;;;;;;;3.92;1.85;;;29.90;46.10;;;;;;4969925;28;20401;-60
2022/05/19 07:56:03;;;;;;;2.75;1.55;;;30.00;46.10;;;;;;4972416;28;20045;-61
2022/05/19 07:58:29;;;;;;;3.17;1.92;;;30.00;45.90;;;;;;4974076;28;20042;-61
2022/05/19 08:01:00;;;;;;;5.10;1.58;;;30.00;44.70;;;;;;4973722;28;20058;-61
2022/05/19 08:03:25;;;;;;;3.17;1.63;;;30.40;45.00;;;;;;4973514;28;20421;-60
2022/05/19 08:05:53;;;;;;;3.03;1.80;;;30.40;44.80;;;;;;4970578;28;20027;-61
2022/05/19 08:08:20;;;;;;;2.58;1.52;;;30.60;44.60;;;;;;4973208;28;20027;-61
2022/05/19 08:10:45;;;;;;;4.18;1.73;;;31.30;45.30;;;;;;4972909;28;20038;-61
2022/05/19 08:16:04;;;;;;;5.35;1.50;;;31.40;43.60;;;;;;4973353;28;20130;-61
2022/05/19 08:18:30;;;;;;;3.00;1.70;;;32.00;42.60;;;;;;4972430;28;20388;-61
2022/05/19 08:21:01;;;;;;;3.28;1.80;;;31.60;42.70;;;;;;4973238;28;20042;-60
2022/05/19 08:23:31;;;;;;;2.38;1.88;;;31.50;41.90;;;;;;4972355;28;20038;-60
2022/05/19 08:25:57;;;;;;;2.53;1.43;;;30.70;43.20;;;;;;4972793;28;20034;-61
2022/05/19 08:28:29;;;;;;;5.40;1.70;;;30.70;44.00;;;;;;4968014;28;20337;-61
2022/05/19 08:30:57;;;;;;;2.38;1.70;;;30.30;45.10;;;;;;4973075;28;20341;-60
2022/05/19 08:33:23;;;;;;;3.65;1.70;;;30.00;43.60;;;;;;4970958;28;20039;-60
2022/05/19 08:35:49;;;;;;;2.72;1.63;;;29.40;45.50;;;;;;4972305;28;20034;-60
2022/05/19 08:38:15;;;;;;;2.45;1.60;;;28.90;45.80;;;;;;4968553;28;20043;-60
2022/05/19 08:40:56;;;;;;;3.97;1.77;;;29.00;46.90;;;;;;4971353;28;20045;-60
2022/05/19 08:43:24;;;;;;;;;;;28.50;45.80;;;;;;4972587;28;20027;-60
2022/05/19 08:45:56;;;;;;;2.20;1.60;;;28.40;46.50;;;;;;4958204;28;20012;-60
2022/05/19 08:48:25;;;;;;;2.63;1.60;;;28.60;46.30;;;;;;4972197;28;20041;-60
2022/05/19 08:51:03;;;;;;;1.42;1.30;;;28.70;46.20;;;;;;4972309;28;20047;-60
2022/05/19 08:53:41;;;;;;;2.22;1.58;;;28.40;45.50;;;;;;4969554;28;20038;-60
2022/05/19 08:56:36;;;;;;;3.50;1.48;;;28.60;47.70;;;;;;4972214;28;20046;-60
2022/05/19 08:59:40;;;;;;;3.47;1.63;;;29.30;44.40;;;;;;4960072;28;20189;-60
2022/05/19 09:02:14;;;;;;;1.90;1.70;;;29.50;44.40;;;;;;4971185;28;20038;-60
2022/05/19 09:04:55;;;;;;;3.00;1.60;;;29.70;44.80;;;;;;4971710;28;20030;-60
2022/05/19 09:10:55;;;;;;;2.67;1.65;;;30.10;45.30;;;;;;4971117;28;20029;-60
2022/05/19 09:13:53;;;;;;;2.38;1.50;;;30.90;42.00;;;;;;4951781;28;20881;-60
2022/05/19 09:16:25;;;;;;;3.17;1.20;;;31.20;44.80;;;;;;4953422;28;20034;-63
2022/05/19 09:19:01;;;;;;;3.72;1.70;;;30.90;43.20;;;;;;4972996;28;20034;-60
2022/05/19 09:21:27;;;;;;;1.65;1.40;;;31.20;42.80;;;;;;4970672;28;20035;-60
2022/05/19 09:23:53;;;;;;;3.13;1.50;;;31.30;43.40;;;;;;4972096;28;20038;-61
2022/05/19 09:26:46;;;;;;;1.60;1.30;;;31.10;41.80;;;;;;4971970;28;20027;-61
2022/05/19 09:29:15;;;;;;;3.10;1.70;;;31.30;42.00;;;;;;4971789;28;20034;-61
2022/05/19 09:31:53;;;;;;;4.22;1.50;;;31.20;42.40;;;;;;4971198;28;20039;-61
2022/05/19 09:34:25;;;;;;;4.75;1.75;;;30.80;42.90;;;;;;4972096;28;20018;-63
2022/05/19 09:37:04;;;;;;;3.03;1.48;;;30.60;43.00;;;;;;4971776;28;20081;-60
2022/05/19 09:39:35;;;;;;;1.98;1.38;;;30.90;42.30;;;;;;4971938;28;20027;-60
2022/05/19 09:42:05;;;;;;;;;;;30.70;42.40;;;;;;4971288;28;20031;-61
2022/05/19 09:44:32;;;;;;;4.07;1.48;;;30.70;43.20;;;;;;4970479;28;19933;-61
2022/05/19 09:47:15;;;;;;;1.42;1.30;;;31.50;42.90;;;;;;4970633;28;20030;-60
2022/05/19 09:49:44;;;;;;;2.15;1.27;;;32.00;41.90;;;;;;4970346;28;20545;-61
2022/05/19 09:52:17;;;;;;;2.92;1.42;;;32.50;40.20;;;;;;4971238;28;20769;-61
2022/05/19 09:54:51;;;;;;;2.92;1.45;;;32.80;40.10;;;;;;4952737;28;20170;-61
2022/05/19 09:57:23;;;;;;;3.30;1.20;;;32.70;41.00;;;;;;4969503;28;20047;-61
2022/05/19 09:59:53;;;;;;;5.60;1.17;;;32.70;40.80;;;;;;4969978;28;20379;-61
2022/05/19 10:02:19;;;;;;;1.40;1.30;;;32.20;41.60;;;;;;4970851;28;20517;-61
2022/05/19 10:04:50;;;;;;;2.95;1.48;;;32.10;41.30;;;;;;4969522;28;20035;-61
2022/05/19 10:07:22;;;;;;;2.30;1.73;;;31.70;42.80;;;;;;4971066;28;20026;-62
2022/05/19 10:09:48;;;;;;;2.10;1.55;;;31.60;43.20;;;;;;4971654;28;20030;-61
2022/05/19 10:12:28;;;;;;;2.30;1.27;;;31.30;43.90;;;;;;4971195;28;20027;-61
2022/05/19 10:15:11;;;;;;;4.30;1.50;;;31.10;45.90;;;;;;4971597;28;20027;-61
2022/05/19 10:17:50;;;;;;;4.70;1.40;;;31.30;44.80;;;;;;4969598;28;20058;-60
2022/05/19 10:20:25;;;;;;;3.88;1.40;;;32.30;44.60;;;;;;4970727;28;20085;-61
2022/05/19 10:23:07;;;;;;;1.90;1.10;;;32.40;42.30;;;;;;4970232;28;20027;-60
2022/05/19 10:25:57;;;;;;;2.28;1.30;;;31.70;42.30;;;;;;4970228;28;20553;-61
2022/05/19 10:31:32;;;;;;;3.25;1.58;;;31.40;44.00;;;;;;4970040;28;20505;-61
2022/05/19 10:34:06;;;;;;;3.80;1.50;;;31.00;44.70;;;;;;4971018;28;20026;-60
2022/05/19 10:37:13;;;;;;;3.55;1.73;;;31.10;44.50;;;;;;4970398;28;20486;-60
2022/05/19 10:39:56;;;;;;;3.08;1.40;;;30.80;45.20;;;;;;4969783;28;20053;-61
2022/05/19 10:42:27;;;;;;;5.13;1.40;;;30.50;45.30;;;;;;4970785;28;20027;-60
2022/05/19 10:44:53;;;;;;;;;;;30.30;44.90;;;;;;4971068;28;20027;-60
2022/05/19 10:47:47;;;;;;;6.50;1.55;;;29.70;46.70;;;;;;4969827;28;19921;-60
2022/05/19 10:50:32;;;;;;;3.30;1.40;;;30.10;49.20;;;;;;4969977;28;20030;-60
2022/05/19 10:53:15;;;;;;;2.90;1.42;;;30.60;47.00;;;;;;4970569;28;20386;-60
2022/05/19 10:56:06;;;;;;;3.53;1.17;;;31.30;44.40;;;;;;4969273;28;20553;-60
2022/05/19 10:58:54;;;;;;;6.35;1.60;;;31.20;43.10;;;;;;4969849;28;20030;-60
2022/05/19 11:01:31;;;;;;;2.22;1.20;;;30.90;44.10;;;;;;4969666;28;20030;-61
2022/05/19 11:04:13;;;;;;;2.00;1.10;;;31.50;45.70;;;;;;4971151;28;20050;-60
2022/05/19 11:06:53;;;;;;;2.35;1.00;;;31.80;41.90;;;;;;4970266;28;20494;-60
2022/05/19 11:09:43;;;;;;;2.65;1.20;;;32.60;41.30;;;;;;4969664;28;20063;-60
2022/05/19 11:12:34;;;;;;;2.08;1.20;;;33.30;41.50;;;;;;4969509;28;20031;-60
2022/05/19 11:15:27;;;;;;;1.30;1.10;;;33.60;42.70;;;;;;4968622;28;20419;-60
2022/05/19 11:18:20;;;;;;;1.90;1.15;;;33.50;38.50;;;;;;4969900;28;20026;-60
2022/05/19 11:21:01;;;;;;;3.13;1.27;;;32.70;37.50;;;;;;4967947;28;20708;-60
2022/05/19 11:23:54;;;;;;;1.30;1.20;;;31.90;40.00;;;;;;4968511;28;20105;-60
2022/05/19 11:26:31;;;;;;;1.33;1.20;;;31.10;42.30;;;;;;4967938;28;20034;-60
2022/05/19 11:29:08;;;;;;;2.63;1.13;;;31.20;42.10;;;;;;4968720;28;20023;-60
2022/05/19 11:31:43;;;;;;;4.53;1.30;;;31.70;47.10;;;;;;4965726;28;20037;-60
2022/05/19 11:34:20;;;;;;;2.55;1.40;;;31.30;41.20;;;;;;4970592;28;20105;-60
2022/05/19 11:37:02;;;;;;;2.70;1.02;;;31.40;44.50;;;;;;4969024;28;20117;-60
2022/05/19 11:39:51;;;;;;;1.63;1.15;;;32.20;42.90;;;;;;4969354;28;20037;-60
2022/05/19 11:42:52;;;;;;;2.03;1.00;;;33.20;42.10;;;;;;4968002;28;20031;-60
2022/05/19 11:45:24;;;;;;;3.55;1.30;;;34.30;39.10;;;;;;4922640;28;20226;-60
2022/05/19 11:57:45;;;;;;;2.50;1.10;;;33.00;39.60;;;;;;4954753;28;20046;-60
2022/05/19 12:00:18;;;;;;;2.67;1.52;;;32.10;40.90;;;;;;4968645;28;20035;-60
2022/05/19 12:02:57;;;;;;;1.75;1.10;;;32.30;40.30;;;;;;4969555;28;20035;-60
2022/05/19 12:05:29;;;;;;;2.33;1.10;;;32.60;41.40;;;;;;4968760;28;20030;-60
2022/05/19 12:07:58;;;;;;;1.30;1.10;;;33.50;39.60;;;;;;4969566;28;20395;-61
2022/05/19 12:10:46;;;;;;;2.00;1.02;;;34.00;38.40;;;;;;4969279;28;20475;-61
2022/05/19 12:13:11;;;;;;;8.32;1.10;;;34.20;39.00;;;;;;4968903;28;20027;-60
2022/05/19 12:15:49;;;;;;;1.25;1.00;;;34.60;39.00;;;;;;4969448;28;20035;-60
2022/05/19 12:18:23;;;;;;;3.33;1.50;;;35.00;41.60;;;;;;4968438;28;20027;-61
2022/05/19 12:20:50;;;;;;;1.55;1.10;;;35.40;38.90;;;;;;4967995;28;20043;-60
2022/05/19 12:23:24;;;;;;;3.30;1.10;;;35.70;38.70;;;;;;4969085;28;20154;-60
2022/05/19 12:26:04;;;;;;;2.60;1.00;;;35.80;38.00;;;;;;4951211;28;20134;-60
2022/05/19 12:28:37;;;;;;;2.90;1.20;;;35.30;37.20;;;;;;4968183;28;20537;-61
2022/05/19 12:34:01;;;;;;;1.13;0.93;;;35.50;38.80;;;;;;4968365;28;20089;-60
2022/05/19 12:36:35;;;;;;;4.78;1.20;;;35.30;40.00;;;;;;4969749;28;20031;-60
2022/05/19 12:39:17;;;;;;;2.15;1.10;;;35.20;40.40;;;;;;4969822;28;20446;-60
2022/05/19 12:41:49;;;;;;;2.17;1.00;;;35.20;38.60;;;;;;4970886;28;20109;-61
2022/05/19 12:44:41;;;;;;;1.67;0.95;;;34.80;37.60;;;;;;4972591;28;20023;-60
2022/05/19 12:47:30;;;;;;;1.20;1.00;;;34.30;35.90;;;;;;4972524;28;20105;-60
2022/05/19 12:50:20;;;;;;;1.10;0.90;;;33.70;37.50;;;;;;4972339;28;20109;-60
2022/05/19 12:53:21;;;;;;;2.80;1.25;;;33.10;38.10;;;;;;4961862;28;20517;-60
2022/05/19 12:55:56;;;;;;;1.67;1.00;;;32.00;40.30;;;;;;4893095;29;20064;-60
2022/05/19 12:58:37;;;;;;;1.38;1.20;;;31.70;41.70;;;;;;4960979;28;20046;-60
2022/05/19 13:01:13;;;;;;;3.05;1.15;;;31.60;42.50;;;;;;4972677;28;20085;-60
2022/05/19 13:03:40;;;;;;;1.63;1.15;;;31.90;42.50;;;;;;4971862;28;20035;-60
2022/05/19 13:06:06;;;;;;;3.97;1.10;;;32.20;44.00;;;;;;4955337;28;20035;-60
2022/05/19 13:08:34;;;;;;;1.95;1.15;;;32.80;44.80;;;;;;4971836;28;20382;-60
2022/05/19 13:11:04;;;;;;;1.58;1.13;;;33.30;41.70;;;;;;4972173;28;20015;-60
2022/05/19 13:13:38;;;;;;;1.77;1.08;;;33.80;44.20;;;;;;4972830;28;20036;-60
2022/05/19 13:16:13;;;;;;;1.88;0.95;;;34.40;40.00;;;;;;4971805;28;20057;-61
2022/05/19 13:18:45;;;;;;;6.05;1.00;;;35.00;38.50;;;;;;4973077;28;20035;-60
2022/05/19 13:21:35;;;;;;;1.63;1.00;;;35.40;38.30;;;;;;4970566;28;20118;-60
2022/05/19 13:24:06;;;;;;;2.10;0.90;;;35.00;35.50;;;;;;4971355;28;20026;-60
2022/05/19 13:26:35;;;;;;;1.58;0.90;;;35.10;39.30;;;;;;4971126;28;20023;-60
2022/05/19 13:32:07;;;;;;;1.13;1.00;;;34.20;37.50;;;;;;4971354;28;20406;-60
2022/05/19 13:34:48;;;;;;;3.27;1.00;;;34.10;44.40;;;;;;4971619;28;20023;-61
2022/05/19 13:37:27;;;;;;;1.20;1.10;;;33.80;40.70;;;;;;4972411;28;20069;-60